Time;durP1;ratioP1;P1;durP2;ratioP2;P2;SDS_P1;SDS_P2;PMS_P1;PMS_P2;Temp;Humidity;BMP_temperature;BMP_pressure;BME280_temperature;BME280_humidity;BME280_pressure;Samples;Min_cycle;Max_cycle;Signal;HPM_P1;HPM_P2
2021/11/15 00:00:16;;;;;;;17.10;15.30;;;11.00;45.50;;;;;;10464188;28;20232;-72
2021/11/15 00:05:20;;;;;;;17.07;15.27;;;11.00;45.40;;;;;;10462396;28;20225;-72
2021/11/15 00:10:23;;;;;;;17.20;15.40;;;11.00;46.30;;;;;;10465135;28;20696;-72
2021/11/15 00:15:29;;;;;;;19.33;16.20;;;11.00;45.60;;;;;;10461843;28;20231;-72
2021/11/15 00:20:32;;;;;;;18.20;15.50;;;11.00;45.50;;;;;;10456236;28;20597;-72
2021/11/15 00:25:36;;;;;;;17.57;15.77;;;11.00;45.60;;;;;;10461816;28;20901;-72
2021/11/15 00:30:41;;;;;;;16.93;15.17;;;11.00;45.70;;;;;;10458050;28;20228;-72
2021/11/15 00:35:44;;;;;;;17.50;15.50;;;11.00;45.60;;;;;;10460197;28;20598;-72
2021/11/15 00:40:48;;;;;;;16.50;14.80;;;11.00;45.70;;;;;;10463144;28;20244;-72
2021/11/15 00:45:53;;;;;;;16.80;14.90;;;11.00;45.70;;;;;;10455119;28;20232;-72
2021/11/15 00:50:56;;;;;;;18.23;15.90;;;11.00;45.60;;;;;;10460783;28;20239;-72
2021/11/15 00:55:59;;;;;;;17.67;15.47;;;11.00;45.70;;;;;;10459676;28;20225;-72
2021/11/15 01:01:04;;;;;;;18.53;16.33;;;11.00;45.80;;;;;;10456704;28;20224;-73
2021/11/15 01:06:08;;;;;;;19.17;16.50;;;11.00;45.60;;;;;;10461090;28;20252;-72
2021/11/15 01:11:11;;;;;;;18.90;16.13;;;11.00;45.80;;;;;;10460921;28;20755;-72
2021/11/15 01:16:16;;;;;;;20.43;17.07;;;11.00;45.80;;;;;;10459666;28;20225;-72
2021/11/15 01:21:25;;;;;;;21.33;16.77;;;11.00;45.80;;;;;;10459515;28;20821;-72
2021/11/15 01:26:28;;;;;;;20.37;15.93;;;11.00;46.00;;;;;;10460236;28;20224;-72
2021/11/15 01:31:33;;;;;;;18.67;16.60;;;11.00;46.00;;;;;;10452553;28;20626;-72
2021/11/15 01:36:36;;;;;;;19.70;16.30;;;11.00;45.80;;;;;;10467214;28;20234;-72
2021/11/15 01:41:39;;;;;;;18.20;15.67;;;11.00;45.90;;;;;;10467412;28;20228;-72
2021/11/15 01:46:44;;;;;;;18.60;16.07;;;11.00;45.90;;;;;;10467909;28;20232;-72
2021/11/15 01:51:47;;;;;;;18.17;16.27;;;11.00;45.70;;;;;;10463776;28;20311;-72
2021/11/15 01:56:51;;;;;;;16.80;14.83;;;10.90;45.80;;;;;;10467116;28;20233;-72
2021/11/15 02:01:56;;;;;;;18.00;16.10;;;10.90;45.80;;;;;;10464916;28;20224;-72
2021/11/15 02:06:59;;;;;;;18.83;14.93;;;10.90;45.70;;;;;;10461298;28;20732;-72
2021/11/15 02:12:03;;;;;;;20.07;16.93;;;10.80;45.80;;;;;;10460911;28;20234;-72
2021/11/15 02:17:07;;;;;;;18.07;15.40;;;10.80;45.80;;;;;;10464533;28;20229;-73
2021/11/15 02:22:12;;;;;;;20.03;16.63;;;10.70;45.70;;;;;;10463051;28;20228;-72
2021/11/15 02:27:15;;;;;;;20.90;16.27;;;10.80;45.90;;;;;;10459615;28;20267;-72
2021/11/15 02:32:18;;;;;;;20.70;16.83;;;10.70;45.90;;;;;;10463632;28;20217;-72
2021/11/15 02:37:24;;;;;;;17.97;15.87;;;10.70;46.00;;;;;;10467940;28;20708;-72
2021/11/15 02:42:27;;;;;;;20.90;16.47;;;10.70;45.90;;;;;;10461002;28;20652;-72
2021/11/15 02:47:30;;;;;;;20.97;16.43;;;10.70;46.10;;;;;;10457678;28;20237;-72
2021/11/15 02:52:35;;;;;;;20.43;16.13;;;10.70;46.10;;;;;;10462017;28;20767;-72
2021/11/15 02:57:38;;;;;;;20.43;16.63;;;10.60;46.00;;;;;;10467783;28;20229;-72
2021/11/15 03:02:42;;;;;;;15.87;14.17;;;10.60;46.00;;;;;;10464129;28;20229;-72
2021/11/15 03:07:47;;;;;;;18.10;14.43;;;10.60;46.00;;;;;;10464022;28;20255;-72
2021/11/15 03:12:52;;;;;;;19.37;16.00;;;10.60;46.10;;;;;;10462293;28;20225;-72
2021/11/15 03:17:57;;;;;;;18.47;15.97;;;10.50;46.00;;;;;;10467098;28;20233;-72
2021/11/15 03:23:06;;;;;;;18.73;16.07;;;10.50;46.10;;;;;;10466686;28;20228;-72
2021/11/15 03:28:11;;;;;;;20.73;16.10;;;10.50;46.30;;;;;;10469367;28;20314;-72
2021/11/15 03:33:16;;;;;;;18.00;15.33;;;10.50;46.30;;;;;;10460838;28;20228;-72
2021/11/15 03:38:20;;;;;;;20.53;14.50;;;10.50;46.30;;;;;;10469068;28;20259;-72
2021/11/15 03:43:24;;;;;;;17.67;15.60;;;10.50;46.30;;;;;;10464531;28;20315;-72
2021/11/15 03:48:27;;;;;;;17.00;14.67;;;10.50;46.30;;;;;;10463450;28;20228;-72
2021/11/15 03:53:34;;;;;;;17.93;15.00;;;10.50;46.30;;;;;;10461974;28;20225;-72
2021/11/15 03:58:38;;;;;;;18.97;15.63;;;10.40;46.20;;;;;;10459107;28;20233;-72
2021/11/15 04:03:44;;;;;;;18.47;15.00;;;10.40;46.20;;;;;;10463203;28;20235;-72
2021/11/15 04:08:49;;;;;;;18.40;15.03;;;10.30;46.10;;;;;;10465678;28;20231;-71
2021/11/15 04:13:56;;;;;;;20.43;14.93;;;10.30;46.10;;;;;;10459389;28;20578;-72
2021/11/15 04:19:06;;;;;;;18.47;14.37;;;10.20;46.00;;;;;;10456681;28;20223;-72
2021/11/15 04:24:11;;;;;;;19.20;15.97;;;10.10;46.20;;;;;;10462237;28;20220;-71
2021/11/15 04:29:14;;;;;;;19.33;15.10;;;10.10;46.30;;;;;;10463392;28;20220;-71
2021/11/15 04:34:18;;;;;;;17.57;13.83;;;10.10;46.40;;;;;;10463314;28;20590;-71
2021/11/15 04:39:22;;;;;;;17.43;14.57;;;10.00;46.30;;;;;;10464281;28;20229;-71
2021/11/15 04:44:26;;;;;;;18.47;14.20;;;10.00;46.50;;;;;;10465682;28;20224;-71
2021/11/15 04:49:29;;;;;;;20.13;15.47;;;10.00;46.60;;;;;;10470116;28;20294;-73
2021/11/15 04:54:34;;;;;;;19.30;14.50;;;10.10;46.60;;;;;;10455927;28;20243;-71
2021/11/15 04:59:37;;;;;;;17.27;14.53;;;10.10;46.50;;;;;;10463883;28;20687;-72
2021/11/15 05:04:41;;;;;;;18.00;14.47;;;10.10;46.50;;;;;;10463403;28;20243;-74
2021/11/15 05:09:45;;;;;;;19.47;15.50;;;10.10;46.50;;;;;;10467759;28;20812;-71
2021/11/15 05:14:49;;;;;;;18.90;15.33;;;10.10;46.50;;;;;;10468037;28;20293;-73
2021/11/15 05:19:52;;;;;;;17.47;14.40;;;10.10;46.70;;;;;;10470319;28;20230;-71
2021/11/15 05:24:56;;;;;;;20.27;16.00;;;10.10;46.70;;;;;;10465798;28;20298;-71
2021/11/15 05:30:00;;;;;;;18.33;14.63;;;10.10;46.60;;;;;;10453740;28;20238;-71
2021/11/15 05:35:04;;;;;;;19.30;15.70;;;10.10;46.70;;;;;;10475384;28;20223;-72
2021/11/15 05:40:11;;;;;;;17.07;14.20;;;10.10;46.60;;;;;;10471241;28;20231;-72
2021/11/15 05:45:15;;;;;;;23.23;17.03;;;10.10;46.80;;;;;;10473932;28;20251;-72
2021/11/15 05:50:20;;;;;;;20.60;16.50;;;10.10;46.80;;;;;;10471015;28;20705;-72
2021/11/15 05:55:26;;;;;;;22.37;17.27;;;10.10;46.70;;;;;;10465049;28;20312;-71
2021/11/15 06:00:31;;;;;;;22.47;18.47;;;10.20;46.80;;;;;;10462034;28;20239;-72
2021/11/15 06:05:34;;;;;;;22.73;17.80;;;10.20;46.70;;;;;;10470063;28;20239;-72
2021/11/15 06:10:38;;;;;;;20.30;14.60;;;10.20;46.70;;;;;;10463292;28;20242;-71
2021/11/15 06:15:42;;;;;;;25.83;19.57;;;10.20;48.00;;;;;;10464426;28;20224;-71
2021/11/15 06:20:45;;;;;;;27.30;20.23;;;10.20;47.30;;;;;;10459052;28;20579;-71
2021/11/15 06:25:50;;;;;;;26.87;20.23;;;10.30;47.00;;;;;;10460871;28;20229;-71
2021/11/15 06:30:53;;;;;;;27.63;21.63;;;10.30;46.90;;;;;;10458939;28;20322;-71
2021/11/15 06:35:56;;;;;;;26.37;20.77;;;10.30;46.70;;;;;;10464068;28;20248;-72
2021/11/15 06:41:01;;;;;;;22.77;19.03;;;10.30;46.60;;;;;;10455141;28;20234;-71
2021/11/15 06:46:04;;;;;;;26.00;21.33;;;10.30;46.50;;;;;;10464229;28;20286;-72
2021/11/15 06:51:08;;;;;;;26.80;22.00;;;10.30;46.40;;;;;;10461177;28;20231;-72
2021/11/15 06:56:13;;;;;;;25.30;21.17;;;10.30;46.10;;;;;;10471625;28;20227;-71
2021/11/15 07:01:16;;;;;;;26.37;20.83;;;10.20;46.10;;;;;;10467642;28;20229;-72
2021/11/15 07:06:20;;;;;;;24.67;21.27;;;10.20;46.30;;;;;;10462189;28;20290;-72
2021/11/15 07:11:25;;;;;;;24.57;20.33;;;10.10;46.20;;;;;;10462807;28;20229;-71
2021/11/15 07:16:28;;;;;;;24.37;20.60;;;10.10;46.20;;;;;;10464191;28;20449;-72
2021/11/15 07:21:32;;;;;;;22.93;18.77;;;10.10;46.40;;;;;;10465111;28;20225;-72
2021/11/15 07:26:36;;;;;;;26.77;20.33;;;10.10;46.50;;;;;;10462506;28;20232;-71
2021/11/15 07:31:40;;;;;;;23.87;20.30;;;10.10;46.40;;;;;;10461895;28;20712;-71
2021/11/15 07:36:43;;;;;;;24.53;20.70;;;10.00;46.40;;;;;;10461055;28;20228;-71
2021/11/15 07:41:49;;;;;;;23.33;19.53;;;10.00;46.50;;;;;;10457107;28;20231;-72
2021/11/15 07:46:52;;;;;;;22.73;19.67;;;10.00;46.50;;;;;;10458460;28;20243;-71
2021/11/15 07:51:55;;;;;;;21.37;18.23;;;10.00;46.30;;;;;;10454905;28;20232;-71
2021/11/15 07:57:00;;;;;;;20.47;17.37;;;10.00;46.30;;;;;;10455055;28;20225;-72
2021/11/15 08:02:04;;;;;;;20.77;16.90;;;10.00;46.10;;;;;;10445207;28;20706;-72
2021/11/15 08:07:07;;;;;;;18.33;16.20;;;10.00;45.90;;;;;;10450247;28;20229;-72
2021/11/15 08:12:15;;;;;;;18.43;16.00;;;10.00;45.90;;;;;;10448703;28;20286;-71
2021/11/15 08:17:18;;;;;;;18.53;16.13;;;9.90;46.70;;;;;;10449710;28;20544;-71
2021/11/15 08:22:21;;;;;;;20.47;16.73;;;9.90;46.90;;;;;;10447632;28;20236;-71
2021/11/15 08:27:26;;;;;;;18.97;15.27;;;9.90;46.90;;;;;;10453189;28;20231;-71
2021/11/15 08:32:30;;;;;;;18.20;15.27;;;9.80;46.80;;;;;;10458140;28;20342;-72
2021/11/15 08:37:33;;;;;;;17.33;15.00;;;9.80;47.20;;;;;;10462713;28;20228;-71
2021/11/15 08:42:37;;;;;;;16.47;14.57;;;9.80;47.10;;;;;;10465162;28;20232;-71
2021/11/15 08:47:41;;;;;;;18.37;16.33;;;9.80;46.90;;;;;;10466726;28;20319;-71
2021/11/15 08:52:45;;;;;;;17.77;15.60;;;9.90;46.80;;;;;;10468958;28;20916;-71
2021/11/15 08:57:49;;;;;;;17.17;15.37;;;9.80;46.60;;;;;;10473878;28;20247;-71
2021/11/15 09:02:53;;;;;;;17.90;15.50;;;9.80;46.60;;;;;;10461461;28;20304;-70
2021/11/15 09:07:56;;;;;;;17.83;15.83;;;9.80;46.60;;;;;;10466408;28;20278;-68
2021/11/15 09:13:00;;;;;;;18.27;15.80;;;9.80;46.70;;;;;;10466703;28;20220;-69
2021/11/15 09:18:04;;;;;;;19.37;15.80;;;9.80;46.60;;;;;;10465228;28;20220;-69
2021/11/15 09:23:07;;;;;;;19.23;15.53;;;9.80;46.60;;;;;;10463615;28;20236;-69
2021/11/15 09:28:12;;;;;;;20.80;17.13;;;9.70;46.60;;;;;;10452887;28;20772;-69
2021/11/15 09:33:16;;;;;;;18.53;15.73;;;9.80;46.60;;;;;;10466482;28;20229;-69
2021/11/15 09:38:21;;;;;;;18.70;15.77;;;9.70;46.70;;;;;;10462432;28;20247;-68
2021/11/15 09:43:32;;;;;;;21.53;16.63;;;9.70;47.10;;;;;;10469837;28;20602;-69
2021/11/15 09:48:38;;;;;;;20.47;16.37;;;9.70;46.90;;;;;;10465636;28;20225;-69
2021/11/15 09:53:42;;;;;;;20.50;17.27;;;9.80;46.80;;;;;;10467126;28;20227;-69
2021/11/15 09:58:47;;;;;;;20.47;17.03;;;9.80;46.90;;;;;;10460811;28;20243;-69
2021/11/15 10:03:52;;;;;;;20.63;16.77;;;9.80;46.70;;;;;;10464162;28;20700;-69
2021/11/15 10:09:00;;;;;;;19.97;17.33;;;9.90;46.80;;;;;;10466580;28;20610;-70
2021/11/15 10:14:05;;;;;;;20.53;17.43;;;9.90;46.70;;;;;;10470115;28;20225;-70
2021/11/15 10:19:10;;;;;;;20.33;17.07;;;9.90;47.40;;;;;;10456306;28;20240;-69
2021/11/15 10:24:18;;;;;;;21.10;17.60;;;10.00;46.10;;;;;;10458402;28;20235;-69
2021/11/15 10:29:27;;;;;;;20.30;17.60;;;10.00;45.90;;;;;;10461771;28;21415;-68
2021/11/15 10:34:32;;;;;;;20.03;16.17;;;10.10;46.00;;;;;;10461597;28;20231;-68
2021/11/15 10:39:42;;;;;;;20.43;17.77;;;10.10;46.00;;;;;;10458669;28;20235;-68
2021/11/15 10:44:54;;;;;;;19.40;16.30;;;10.20;46.80;;;;;;10459178;28;20717;-69
2021/11/15 10:50:11;;;;;;;21.70;17.73;;;10.20;45.90;;;;;;10457994;28;20687;-68
2021/11/15 10:55:17;;;;;;;21.87;17.13;;;10.30;45.70;;;;;;10468745;28;20764;-69
2021/11/15 11:00:37;;;;;;;20.70;17.83;;;10.30;46.00;;;;;;10466337;28;20217;-69
2021/11/15 11:05:43;;;;;;;22.13;18.10;;;10.30;45.50;;;;;;10456750;28;20826;-68
2021/11/15 11:10:53;;;;;;;19.73;17.63;;;10.40;45.70;;;;;;10466832;28;20231;-69
2021/11/15 11:15:57;;;;;;;27.90;18.27;;;10.40;45.70;;;;;;10461786;28;20582;-69
2021/11/15 11:26:27;;;;;;;21.63;17.83;;;10.40;45.70;;;;;;10465840;28;20237;-69
2021/11/15 11:31:33;;;;;;;21.50;18.47;;;10.40;45.70;;;;;;10464786;28;20220;-69
2021/11/15 11:36:37;;;;;;;22.47;17.63;;;10.40;45.60;;;;;;10464384;28;20247;-69
2021/11/15 11:41:40;;;;;;;20.67;17.93;;;10.50;46.00;;;;;;10457584;28;20610;-69
2021/11/15 11:46:45;;;;;;;23.80;19.50;;;10.50;45.70;;;;;;10460216;28;20233;-69
2021/11/15 11:51:50;;;;;;;21.07;17.67;;;10.60;45.50;;;;;;10460500;28;20256;-69
2021/11/15 11:57:01;;;;;;;21.90;18.60;;;10.50;45.70;;;;;;10458518;28;20239;-70
2021/11/15 12:02:08;;;;;;;21.37;18.40;;;10.50;45.30;;;;;;10455901;28;20829;-70
2021/11/15 12:07:23;;;;;;;24.57;18.67;;;10.60;45.80;;;;;;10454537;28;20282;-70
2021/11/15 12:12:26;;;;;;;22.27;18.27;;;10.60;45.50;;;;;;10453745;28;20228;-70
2021/11/15 12:17:46;;;;;;;19.37;17.37;;;10.70;45.80;;;;;;10453259;28;20239;-70
2021/11/15 12:22:58;;;;;;;20.93;18.33;;;10.70;45.40;;;;;;10457970;28;20692;-69
2021/11/15 12:28:02;;;;;;;22.73;18.63;;;10.70;45.70;;;;;;10456793;28;20236;-69
2021/11/15 12:33:23;;;;;;;23.13;19.07;;;10.80;45.60;;;;;;10458244;28;20227;-69
2021/11/15 12:38:46;;;;;;;18.87;16.27;;;10.80;45.20;;;;;;10457342;28;20224;-69
2021/11/15 12:44:16;;;;;;;20.13;18.03;;;10.80;45.00;;;;;;10453904;28;20220;-70
2021/11/15 12:49:23;;;;;;;20.63;17.63;;;10.90;45.00;;;;;;10448239;28;20231;-71
2021/11/15 12:54:26;;;;;;;20.10;17.90;;;10.90;45.40;;;;;;10448906;28;20295;-71
2021/11/15 12:59:29;;;;;;;20.73;17.23;;;10.90;45.60;;;;;;10453857;28;20239;-71
2021/11/15 13:04:34;;;;;;;18.90;16.90;;;11.00;45.60;;;;;;10433920;28;20228;-72
2021/11/15 13:09:38;;;;;;;20.43;17.90;;;11.00;45.40;;;;;;10448532;28;20263;-72
2021/11/15 13:14:41;;;;;;;19.33;17.10;;;11.10;45.50;;;;;;10440545;28;20681;-73
2021/11/15 13:19:48;;;;;;;20.87;18.50;;;11.10;45.50;;;;;;10448469;28;20236;-73
2021/11/15 13:24:53;;;;;;;20.33;16.93;;;11.20;45.40;;;;;;10435382;28;20225;-72
2021/11/15 13:29:59;;;;;;;20.13;17.13;;;11.30;45.70;;;;;;10455866;28;20582;-72
2021/11/15 13:35:04;;;;;;;19.43;16.47;;;11.30;45.60;;;;;;10457647;28;20237;-72
2021/11/15 13:40:09;;;;;;;20.70;16.87;;;11.30;45.40;;;;;;10454845;28;20231;-72
2021/11/15 13:45:12;;;;;;;20.87;16.93;;;11.40;45.50;;;;;;10444500;28;20720;-72
2021/11/15 13:50:17;;;;;;;19.83;16.53;;;11.40;45.60;;;;;;10452300;28;20710;-72
2021/11/15 13:55:21;;;;;;;19.97;16.73;;;11.40;45.30;;;;;;10450848;28;20231;-72
2021/11/15 14:00:24;;;;;;;19.47;16.67;;;11.40;45.40;;;;;;10446772;28;20225;-72
2021/11/15 14:05:32;;;;;;;19.93;16.73;;;11.30;45.30;;;;;;10449625;28;20334;-72
2021/11/15 14:10:35;;;;;;;19.80;16.60;;;11.30;45.00;;;;;;10454892;28;20236;-72
2021/11/15 14:15:39;;;;;;;21.40;17.53;;;11.30;45.20;;;;;;10450080;28;20221;-72
2021/11/15 14:20:44;;;;;;;20.97;16.87;;;11.30;45.30;;;;;;10454038;28;20224;-71
2021/11/15 14:25:47;;;;;;;20.53;16.40;;;11.30;45.20;;;;;;10449598;28;20228;-72
2021/11/15 14:30:50;;;;;;;18.17;16.20;;;11.30;45.30;;;;;;10452506;28;21161;-72
2021/11/15 14:35:57;;;;;;;22.70;17.50;;;11.30;45.20;;;;;;10452449;28;20231;-72
2021/11/15 14:41:02;;;;;;;19.73;16.80;;;11.30;45.20;;;;;;10453010;28;20701;-72
2021/11/15 14:46:05;;;;;;;19.90;16.63;;;11.30;45.30;;;;;;10457867;28;20242;-72
2021/11/15 14:51:10;;;;;;;19.40;16.20;;;11.30;45.30;;;;;;10457908;28;20232;-73
2021/11/15 14:56:13;;;;;;;20.63;16.20;;;11.30;45.20;;;;;;10455274;28;20225;-73
2021/11/15 15:01:17;;;;;;;18.17;15.80;;;11.20;45.30;;;;;;10458492;28;20220;-73
2021/11/15 15:06:24;;;;;;;15.83;13.90;;;11.20;45.60;;;;;;10460449;28;20224;-71
2021/11/15 15:11:27;;;;;;;19.83;15.67;;;11.20;46.50;;;;;;10466904;28;20244;-73
2021/11/15 15:16:30;;;;;;;17.97;15.90;;;11.30;46.90;;;;;;10467392;28;20239;-72
2021/11/15 15:21:35;;;;;;;19.43;15.90;;;11.30;45.80;;;;;;10472663;28;20223;-72
2021/11/15 15:26:39;;;;;;;20.47;15.90;;;11.40;46.30;;;;;;10466739;28;20689;-73
2021/11/15 15:31:43;;;;;;;19.83;16.47;;;11.40;45.60;;;;;;10462404;28;20220;-72
2021/11/15 15:36:48;;;;;;;18.87;15.87;;;11.40;45.50;;;;;;10466457;28;20235;-72
2021/11/15 15:41:54;;;;;;;18.93;16.40;;;11.40;45.30;;;;;;10452068;28;20224;-72
2021/11/15 15:46:58;;;;;;;19.97;16.60;;;11.40;45.40;;;;;;10452346;28;20240;-72
2021/11/15 15:52:03;;;;;;;18.77;16.03;;;11.40;45.40;;;;;;10456331;28;20727;-72
2021/11/15 15:57:07;;;;;;;16.23;14.30;;;11.40;45.30;;;;;;10458784;28;20240;-72
2021/11/15 16:02:10;;;;;;;15.50;13.80;;;11.50;45.40;;;;;;10454458;28;20280;-72
2021/11/15 16:07:28;;;;;;;16.97;13.87;;;11.40;45.30;;;;;;10457675;28;20228;-70
2021/11/15 16:18:08;;;;;;;17.73;15.73;;;11.50;46.00;;;;;;10424252;28;20236;-72
2021/11/15 16:23:12;;;;;;;15.90;14.20;;;11.60;45.50;;;;;;10460349;28;20212;-71
2021/11/15 16:28:16;;;;;;;18.33;15.53;;;11.60;44.80;;;;;;10450082;28;20221;-71
2021/11/15 16:33:19;;;;;;;20.10;16.70;;;11.50;44.60;;;;;;10457380;28;20228;-71
2021/11/15 16:38:23;;;;;;;16.53;14.67;;;11.50;44.50;;;;;;10467316;28;20237;-71
2021/11/15 16:43:27;;;;;;;17.40;15.53;;;11.40;44.10;;;;;;10464264;28;20247;-71
2021/11/15 16:48:30;;;;;;;19.50;17.33;;;11.30;44.20;;;;;;10462531;28;20243;-71
2021/11/15 16:53:39;;;;;;;19.47;16.10;;;11.30;43.90;;;;;;10463676;28;20235;-71
2021/11/15 16:58:42;;;;;;;18.73;16.60;;;11.20;43.70;;;;;;10464317;28;20276;-72
2021/11/15 17:03:46;;;;;;;17.30;13.90;;;11.10;43.70;;;;;;10468545;28;20228;-71
2021/11/15 17:08:51;;;;;;;16.87;15.07;;;11.00;43.70;;;;;;10472272;28;20891;-71
2021/11/15 17:13:55;;;;;;;19.33;16.50;;;10.90;43.40;;;;;;10473073;28;20231;-71
2021/11/15 17:18:59;;;;;;;23.60;20.27;;;10.80;43.60;;;;;;10473049;28;20256;-71
2021/11/15 17:24:05;;;;;;;24.60;20.60;;;10.80;43.60;;;;;;10469238;28;20228;-71
2021/11/15 17:29:10;;;;;;;26.27;22.13;;;10.70;43.30;;;;;;10467265;28;20246;-71
2021/11/15 17:34:14;;;;;;;28.77;23.33;;;10.60;43.40;;;;;;10467551;28;20255;-71
2021/11/15 17:39:19;;;;;;;28.80;22.70;;;10.60;43.30;;;;;;10470057;28;20238;-72
2021/11/15 17:44:22;;;;;;;30.00;26.43;;;10.50;42.90;;;;;;10466368;28;20247;-71
2021/11/15 17:49:26;;;;;;;27.40;24.20;;;10.40;43.10;;;;;;10468348;28;20241;-72
2021/11/15 17:54:42;;;;;;;27.23;23.20;;;10.30;43.20;;;;;;10469303;28;20283;-71
2021/11/15 17:59:47;;;;;;;23.47;18.80;;;10.20;43.00;;;;;;10467172;28;20231;-71
2021/11/15 18:04:50;;;;;;;18.90;16.90;;;10.10;43.40;;;;;;10468814;28;20676;-71
2021/11/15 18:09:55;;;;;;;20.67;17.43;;;10.00;43.40;;;;;;10466513;28;20224;-72
2021/11/15 18:14:58;;;;;;;20.13;17.50;;;9.90;44.30;;;;;;10467076;28;20876;-71
2021/11/15 18:20:04;;;;;;;21.17;17.80;;;9.90;44.50;;;;;;10467767;28;20232;-71
2021/11/15 18:25:09;;;;;;;20.93;18.53;;;9.80;44.20;;;;;;10468221;28;20233;-72
2021/11/15 18:30:16;;;;;;;18.17;16.27;;;9.80;44.20;;;;;;10467678;28;20358;-70
2021/11/15 18:35:20;;;;;;;18.83;15.57;;;9.70;44.40;;;;;;10469125;28;20635;-70
2021/11/15 18:40:26;;;;;;;21.73;19.40;;;9.60;44.40;;;;;;10470446;28;20607;-70
2021/11/15 18:45:29;;;;;;;23.17;20.47;;;9.60;44.20;;;;;;10464813;28;20269;-70
2021/11/15 18:50:34;;;;;;;20.40;17.70;;;9.60;44.40;;;;;;10469355;28;20594;-70
2021/11/15 18:55:39;;;;;;;20.50;17.13;;;9.50;44.40;;;;;;10463642;28;20239;-71
2021/11/15 19:05:58;;;;;;;19.07;16.40;;;9.40;44.50;;;;;;10424585;28;20233;-73
2021/11/15 19:11:09;;;;;;;21.23;17.67;;;9.40;44.50;;;;;;10471384;22;20228;-70
2021/11/15 19:16:16;;;;;;;21.90;17.80;;;9.30;44.40;;;;;;10468607;28;20228;-69
2021/11/15 19:21:21;;;;;;;19.17;16.70;;;9.30;44.50;;;;;;10469194;28;20841;-69
2021/11/15 19:26:27;;;;;;;23.93;19.00;;;9.20;44.60;;;;;;10462685;28;20235;-69
2021/11/15 19:31:31;;;;;;;25.73;20.70;;;9.20;45.30;;;;;;10469770;28;20232;-69
2021/11/15 19:36:37;;;;;;;26.17;20.00;;;9.10;44.70;;;;;;10469703;28;20568;-69
2021/11/15 19:41:44;;;;;;;22.67;19.80;;;9.10;44.60;;;;;;10466645;28;20947;-69
2021/11/15 19:46:48;;;;;;;25.10;19.93;;;9.10;44.60;;;;;;10459446;28;20224;-69
2021/11/15 19:51:58;;;;;;;19.40;17.10;;;9.00;44.70;;;;;;10464947;28;20741;-69
2021/11/15 19:57:04;;;;;;;25.73;21.20;;;9.00;44.80;;;;;;10471733;28;20248;-69
2021/11/15 20:02:12;;;;;;;21.70;18.43;;;9.00;44.70;;;;;;10470436;28;20997;-69
2021/11/15 20:07:15;;;;;;;22.63;18.97;;;8.90;44.70;;;;;;10474152;28;20231;-68
2021/11/15 20:12:22;;;;;;;22.10;17.97;;;8.90;44.80;;;;;;10464696;28;20235;-68
2021/11/15 20:17:25;;;;;;;27.00;20.63;;;8.80;44.70;;;;;;10462378;28;20233;-68
2021/11/15 20:22:29;;;;;;;24.27;20.27;;;8.80;44.70;;;;;;10463651;28;20949;-68
2021/11/15 20:27:34;;;;;;;27.60;21.20;;;8.80;44.60;;;;;;10464684;28;20221;-68
2021/11/15 20:32:37;;;;;;;27.47;21.80;;;8.70;44.60;;;;;;10459632;28;20228;-67
2021/11/15 20:37:41;;;;;;;24.50;20.30;;;8.70;44.60;;;;;;10464822;28;20910;-68
2021/11/15 20:42:46;;;;;;;24.33;18.27;;;8.60;44.60;;;;;;10476054;28;20223;-71
2021/11/15 20:47:49;;;;;;;23.93;18.77;;;8.60;44.60;;;;;;10472884;28;20232;-71
2021/11/15 20:52:53;;;;;;;23.63;19.60;;;8.60;45.30;;;;;;10466035;28;20264;-70
2021/11/15 20:57:59;;;;;;;21.27;18.30;;;8.50;44.70;;;;;;10472947;28;20637;-71
2021/11/15 21:03:04;;;;;;;23.60;19.77;;;8.50;44.70;;;;;;10476024;28;20652;-71
2021/11/15 21:08:07;;;;;;;23.97;18.87;;;8.50;44.80;;;;;;10465746;28;20232;-70
2021/11/15 21:13:12;;;;;;;26.40;19.40;;;8.50;44.80;;;;;;10461945;28;20224;-70
2021/11/15 21:18:16;;;;;;;26.50;21.07;;;8.40;44.80;;;;;;10466926;28;20233;-70
2021/11/15 21:23:21;;;;;;;26.33;21.63;;;8.40;44.80;;;;;;10474063;28;20225;-69
2021/11/15 21:28:26;;;;;;;26.53;21.03;;;8.40;45.00;;;;;;10469581;28;20323;-70
2021/11/15 21:33:30;;;;;;;28.83;22.73;;;8.40;45.20;;;;;;10475011;28;20238;-70
2021/11/15 21:38:33;;;;;;;31.43;23.63;;;8.40;45.20;;;;;;10472070;28;20232;-69
2021/11/15 21:43:38;;;;;;;30.60;22.67;;;8.40;45.30;;;;;;10468234;28;20590;-71
2021/11/15 21:48:41;;;;;;;31.63;23.77;;;8.30;45.40;;;;;;10463025;28;20239;-71
2021/11/15 21:53:45;;;;;;;35.00;24.33;;;8.30;45.40;;;;;;10470723;28;20330;-71
2021/11/15 21:58:49;;;;;;;32.07;24.97;;;8.30;45.40;;;;;;10467832;28;20696;-71
2021/11/15 22:03:53;;;;;;;30.20;23.93;;;8.30;45.50;;;;;;10446820;28;20235;-72
2021/11/15 22:08:57;;;;;;;32.53;23.97;;;8.30;45.70;;;;;;10455054;28;20233;-71
2021/11/15 22:14:03;;;;;;;33.63;25.90;;;8.30;45.70;;;;;;10457669;28;20228;-72
2021/11/15 22:19:06;;;;;;;31.43;24.33;;;8.30;45.90;;;;;;10452598;28;20221;-70
2021/11/15 22:24:10;;;;;;;36.03;27.20;;;8.30;45.80;;;;;;10456248;28;20228;-72
2021/11/15 22:29:14;;;;;;;31.87;24.70;;;8.30;46.00;;;;;;10453341;28;20231;-71
2021/11/15 22:34:18;;;;;;;34.53;26.10;;;8.30;46.00;;;;;;10452398;28;20235;-72
2021/11/15 22:39:21;;;;;;;35.13;25.70;;;8.30;45.80;;;;;;10450621;28;20611;-72
2021/11/15 22:44:26;;;;;;;37.03;25.67;;;8.30;45.90;;;;;;10457422;28;20745;-71
2021/11/15 22:49:30;;;;;;;32.13;23.77;;;8.40;46.30;;;;;;10458415;28;20579;-71
2021/11/15 22:54:33;;;;;;;37.57;26.53;;;8.40;46.40;;;;;;10460520;28;20227;-74
2021/11/15 22:59:38;;;;;;;33.40;25.77;;;8.40;46.40;;;;;;10457009;28;20595;-74
2021/11/15 23:04:41;;;;;;;33.83;26.57;;;8.40;46.50;;;;;;10456850;28;20236;-74
2021/11/15 23:09:44;;;;;;;34.00;25.47;;;8.40;46.40;;;;;;10454556;28;20247;-74
2021/11/15 23:14:49;;;;;;;35.50;25.20;;;8.50;46.50;;;;;;10459326;28;20254;-74
2021/11/15 23:19:52;;;;;;;33.43;24.53;;;8.50;46.60;;;;;;10458188;28;20236;-75
2021/11/15 23:24:56;;;;;;;36.00;27.13;;;8.50;46.50;;;;;;10456035;28;20608;-74
2021/11/15 23:30:00;;;;;;;37.00;26.43;;;8.40;46.50;;;;;;10457550;28;20239;-73
2021/11/15 23:35:04;;;;;;;36.30;26.50;;;8.50;46.80;;;;;;10463806;28;20232;-75
2021/11/15 23:40:09;;;;;;;35.20;25.47;;;8.50;46.80;;;;;;10462977;28;20229;-74
2021/11/15 23:45:14;;;;;;;39.13;26.73;;;8.50;46.90;;;;;;10463623;28;20232;-74
2021/11/15 23:50:17;;;;;;;37.67;26.43;;;8.60;47.10;;;;;;10459194;28;20903;-74
2021/11/15 23:55:21;;;;;;;35.33;25.10;;;8.60;46.90;;;;;;10462402;28;20240;-74
